sensor_id;sensor_type;location;lat;lon;timestamp;P1;durP1;ratioP1;P2;durP2;ratioP2
52586;SDS011;38480;52.724;6.436;2023-09-19T00:02:00;11.17;;;2.10;;
52586;SDS011;38480;52.724;6.436;2023-09-19T00:04:26;8.73;;;2.27;;
52586;SDS011;38480;52.724;6.436;2023-09-19T00:06:54;12.83;;;2.83;;
52586;SDS011;38480;52.724;6.436;2023-09-19T00:09:21;12.67;;;3.20;;
52586;SDS011;38480;52.724;6.436;2023-09-19T00:11:47;10.87;;;2.87;;
52586;SDS011;38480;52.724;6.436;2023-09-19T00:14:16;10.83;;;2.60;;
52586;SDS011;38480;52.724;6.436;2023-09-19T00:16:42;12.90;;;2.60;;
52586;SDS011;38480;52.724;6.436;2023-09-19T00:19:08;13.03;;;2.87;;
52586;SDS011;38480;52.724;6.436;2023-09-19T00:21:34;11.03;;;2.63;;
52586;SDS011;38480;52.724;6.436;2023-09-19T00:24:03;12.50;;;2.90;;
52586;SDS011;38480;52.724;6.436;2023-09-19T00:26:31;14.53;;;3.30;;
52586;SDS011;38480;52.724;6.436;2023-09-19T00:28:57;14.93;;;3.30;;
52586;SDS011;38480;52.724;6.436;2023-09-19T00:31:24;10.47;;;2.70;;
52586;SDS011;38480;52.724;6.436;2023-09-19T00:33:50;10.70;;;2.73;;
52586;SDS011;38480;52.724;6.436;2023-09-19T00:36:18;13.00;;;3.00;;
52586;SDS011;38480;52.724;6.436;2023-09-19T00:38:44;20.17;;;3.40;;
52586;SDS011;38480;52.724;6.436;2023-09-19T00:41:11;15.40;;;2.87;;
52586;SDS011;38480;52.724;6.436;2023-09-19T00:43:37;15.20;;;3.30;;
52586;SDS011;38480;52.724;6.436;2023-09-19T00:46:05;14.10;;;3.10;;
52586;SDS011;38480;52.724;6.436;2023-09-19T00:48:31;19.17;;;3.83;;
52586;SDS011;38480;52.724;6.436;2023-09-19T00:50:58;15.47;;;2.63;;
52586;SDS011;38480;52.724;6.436;2023-09-19T00:53:25;15.27;;;3.17;;
52586;SDS011;38480;52.724;6.436;2023-09-19T00:55:52;23.50;;;3.00;;
52586;SDS011;38480;52.724;6.436;2023-09-19T00:58:18;20.17;;;3.10;;
52586;SDS011;38480;52.724;6.436;2023-09-19T01:00:46;20.80;;;3.60;;
52586;SDS011;38480;52.724;6.436;2023-09-19T01:03:12;13.60;;;3.20;;
52586;SDS011;38480;52.724;6.436;2023-09-19T01:05:38;17.97;;;3.67;;
52586;SDS011;38480;52.724;6.436;2023-09-19T01:08:04;20.50;;;3.97;;
52586;SDS011;38480;52.724;6.436;2023-09-19T01:10:31;11.53;;;3.37;;
52586;SDS011;38480;52.724;6.436;2023-09-19T01:13:03;15.80;;;4.27;;
52586;SDS011;38480;52.724;6.436;2023-09-19T01:18:11;16.97;;;3.33;;
52586;SDS011;38480;52.724;6.436;2023-09-19T01:21:05;20.60;;;3.53;;
52586;SDS011;38480;52.724;6.436;2023-09-19T01:29:01;21.20;;;3.70;;
52586;SDS011;38480;52.724;6.436;2023-09-19T01:31:38;12.93;;;3.37;;
52586;SDS011;38480;52.724;6.436;2023-09-19T01:34:05;13.27;;;3.30;;
52586;SDS011;38480;52.724;6.436;2023-09-19T01:36:35;10.77;;;3.37;;
52586;SDS011;38480;52.724;6.436;2023-09-19T01:39:05;14.20;;;3.77;;
52586;SDS011;38480;52.724;6.436;2023-09-19T01:42:18;17.70;;;3.33;;
52586;SDS011;38480;52.724;6.436;2023-09-19T01:44:40;12.73;;;3.67;;
52586;SDS011;38480;52.724;6.436;2023-09-19T01:47:13;15.38;;;4.18;;
52586;SDS011;38480;52.724;6.436;2023-09-19T01:49:44;13.30;;;3.80;;
52586;SDS011;38480;52.724;6.436;2023-09-19T01:52:16;14.40;;;3.85;;
52586;SDS011;38480;52.724;6.436;2023-09-19T01:54:56;19.43;;;4.50;;
52586;SDS011;38480;52.724;6.436;2023-09-19T01:57:28;12.30;;;3.67;;
52586;SDS011;38480;52.724;6.436;2023-09-19T02:00:02;10.83;;;3.80;;
52586;SDS011;38480;52.724;6.436;2023-09-19T02:02:35;15.53;;;4.20;;
52586;SDS011;38480;52.724;6.436;2023-09-19T02:05:02;14.13;;;3.53;;
52586;SDS011;38480;52.724;6.436;2023-09-19T02:07:29;16.60;;;3.70;;
52586;SDS011;38480;52.724;6.436;2023-09-19T02:09:56;16.97;;;3.47;;
52586;SDS011;38480;52.724;6.436;2023-09-19T02:12:24;13.83;;;5.03;;
52586;SDS011;38480;52.724;6.436;2023-09-19T02:14:50;22.30;;;3.83;;
52586;SDS011;38480;52.724;6.436;2023-09-19T02:17:16;17.10;;;3.87;;
52586;SDS011;38480;52.724;6.436;2023-09-19T02:19:42;12.57;;;3.53;;
52586;SDS011;38480;52.724;6.436;2023-09-19T02:22:08;16.60;;;4.10;;
52586;SDS011;38480;52.724;6.436;2023-09-19T02:24:35;12.60;;;4.77;;
52586;SDS011;38480;52.724;6.436;2023-09-19T02:27:01;15.33;;;3.53;;
52586;SDS011;38480;52.724;6.436;2023-09-19T02:29:32;11.70;;;3.10;;
52586;SDS011;38480;52.724;6.436;2023-09-19T02:31:59;16.90;;;3.47;;
52586;SDS011;38480;52.724;6.436;2023-09-19T02:34:28;11.63;;;3.73;;
52586;SDS011;38480;52.724;6.436;2023-09-19T02:36:54;10.80;;;3.37;;
52586;SDS011;38480;52.724;6.436;2023-09-19T02:39:21;14.20;;;3.37;;
52586;SDS011;38480;52.724;6.436;2023-09-19T02:41:47;13.90;;;3.13;;
52586;SDS011;38480;52.724;6.436;2023-09-19T02:44:12;13.37;;;3.40;;
52586;SDS011;38480;52.724;6.436;2023-09-19T02:46:39;17.20;;;3.70;;
52586;SDS011;38480;52.724;6.436;2023-09-19T02:49:05;13.60;;;3.37;;
52586;SDS011;38480;52.724;6.436;2023-09-19T02:51:31;12.13;;;3.17;;
52586;SDS011;38480;52.724;6.436;2023-09-19T02:54:01;15.00;;;4.27;;
52586;SDS011;38480;52.724;6.436;2023-09-19T02:56:30;14.50;;;3.70;;
52586;SDS011;38480;52.724;6.436;2023-09-19T02:58:57;12.87;;;2.73;;
52586;SDS011;38480;52.724;6.436;2023-09-19T03:01:23;17.43;;;3.40;;
52586;SDS011;38480;52.724;6.436;2023-09-19T03:03:49;14.23;;;3.53;;
52586;SDS011;38480;52.724;6.436;2023-09-19T03:06:15;15.40;;;3.50;;
52586;SDS011;38480;52.724;6.436;2023-09-19T03:08:44;11.03;;;2.90;;
52586;SDS011;38480;52.724;6.436;2023-09-19T03:11:11;10.70;;;3.33;;
52586;SDS011;38480;52.724;6.436;2023-09-19T03:13:41;8.40;;;3.00;;
52586;SDS011;38480;52.724;6.436;2023-09-19T03:16:07;11.40;;;2.80;;
52586;SDS011;38480;52.724;6.436;2023-09-19T03:18:34;14.23;;;3.77;;
52586;SDS011;38480;52.724;6.436;2023-09-19T03:21:00;15.33;;;3.20;;
52586;SDS011;38480;52.724;6.436;2023-09-19T03:23:26;10.50;;;2.53;;
52586;SDS011;38480;52.724;6.436;2023-09-19T03:25:53;12.73;;;3.10;;
52586;SDS011;38480;52.724;6.436;2023-09-19T03:28:19;13.90;;;3.27;;
52586;SDS011;38480;52.724;6.436;2023-09-19T03:31:01;14.73;;;3.03;;
52586;SDS011;38480;52.724;6.436;2023-09-19T03:33:27;16.83;;;3.23;;
52586;SDS011;38480;52.724;6.436;2023-09-19T03:35:53;12.50;;;3.20;;
52586;SDS011;38480;52.724;6.436;2023-09-19T03:38:20;12.57;;;2.77;;
52586;SDS011;38480;52.724;6.436;2023-09-19T03:40:46;13.30;;;3.37;;
52586;SDS011;38480;52.724;6.436;2023-09-19T03:43:13;11.77;;;3.70;;
52586;SDS011;38480;52.724;6.436;2023-09-19T03:45:39;11.80;;;3.27;;
52586;SDS011;38480;52.724;6.436;2023-09-19T03:48:09;14.83;;;3.37;;
52586;SDS011;38480;52.724;6.436;2023-09-19T03:50:35;10.40;;;4.23;;
52586;SDS011;38480;52.724;6.436;2023-09-19T03:53:01;11.30;;;3.23;;
52586;SDS011;38480;52.724;6.436;2023-09-19T03:55:27;16.53;;;5.00;;
52586;SDS011;38480;52.724;6.436;2023-09-19T03:57:55;11.47;;;2.87;;
52586;SDS011;38480;52.724;6.436;2023-09-19T04:00:21;16.30;;;3.40;;
52586;SDS011;38480;52.724;6.436;2023-09-19T04:02:49;13.67;;;3.20;;
52586;SDS011;38480;52.724;6.436;2023-09-19T04:05:17;9.90;;;2.70;;
52586;SDS011;38480;52.724;6.436;2023-09-19T04:07:43;14.97;;;3.17;;
52586;SDS011;38480;52.724;6.436;2023-09-19T04:10:09;13.63;;;4.00;;
52586;SDS011;38480;52.724;6.436;2023-09-19T04:12:36;14.60;;;2.87;;
52586;SDS011;38480;52.724;6.436;2023-09-19T04:15:04;14.53;;;3.40;;
52586;SDS011;38480;52.724;6.436;2023-09-19T04:17:30;21.10;;;4.47;;
52586;SDS011;38480;52.724;6.436;2023-09-19T04:19:58;13.50;;;3.37;;
52586;SDS011;38480;52.724;6.436;2023-09-19T04:22:24;15.10;;;3.87;;
52586;SDS011;38480;52.724;6.436;2023-09-19T04:24:50;14.83;;;4.27;;
52586;SDS011;38480;52.724;6.436;2023-09-19T04:27:16;13.60;;;3.33;;
52586;SDS011;38480;52.724;6.436;2023-09-19T04:29:43;16.73;;;3.33;;
52586;SDS011;38480;52.724;6.436;2023-09-19T04:32:09;13.73;;;3.40;;
52586;SDS011;38480;52.724;6.436;2023-09-19T04:34:35;18.63;;;4.83;;
52586;SDS011;38480;52.724;6.436;2023-09-19T04:37:03;17.43;;;3.97;;
52586;SDS011;38480;52.724;6.436;2023-09-19T04:39:29;16.40;;;3.40;;
52586;SDS011;38480;52.724;6.436;2023-09-19T04:41:55;16.87;;;3.90;;
52586;SDS011;38480;52.724;6.436;2023-09-19T04:44:22;28.50;;;4.83;;
52586;SDS011;38480;52.724;6.436;2023-09-19T04:46:48;18.17;;;3.60;;
52586;SDS011;38480;52.724;6.436;2023-09-19T04:49:14;15.53;;;3.23;;
52586;SDS011;38480;52.724;6.436;2023-09-19T04:51:40;17.00;;;3.90;;
52586;SDS011;38480;52.724;6.436;2023-09-19T04:54:06;14.33;;;3.17;;
52586;SDS011;38480;52.724;6.436;2023-09-19T04:56:32;9.10;;;3.00;;
52586;SDS011;38480;52.724;6.436;2023-09-19T04:58:59;15.90;;;3.70;;
52586;SDS011;38480;52.724;6.436;2023-09-19T05:01:25;19.13;;;3.90;;
52586;SDS011;38480;52.724;6.436;2023-09-19T05:03:52;21.57;;;3.47;;
52586;SDS011;38480;52.724;6.436;2023-09-19T05:06:18;20.20;;;2.80;;
52586;SDS011;38480;52.724;6.436;2023-09-19T05:08:46;17.03;;;2.90;;
52586;SDS011;38480;52.724;6.436;2023-09-19T05:11:15;15.73;;;3.67;;
52586;SDS011;38480;52.724;6.436;2023-09-19T05:13:41;17.53;;;4.07;;
52586;SDS011;38480;52.724;6.436;2023-09-19T05:16:08;21.87;;;4.07;;
52586;SDS011;38480;52.724;6.436;2023-09-19T05:18:35;18.13;;;2.83;;
52586;SDS011;38480;52.724;6.436;2023-09-19T05:21:04;12.07;;;3.10;;
52586;SDS011;38480;52.724;6.436;2023-09-19T05:23:30;17.57;;;4.07;;
52586;SDS011;38480;52.724;6.436;2023-09-19T05:25:56;16.47;;;3.07;;
52586;SDS011;38480;52.724;6.436;2023-09-19T05:28:25;11.43;;;2.77;;
52586;SDS011;38480;52.724;6.436;2023-09-19T05:30:51;17.63;;;2.97;;
52586;SDS011;38480;52.724;6.436;2023-09-19T05:33:18;18.57;;;3.20;;
52586;SDS011;38480;52.724;6.436;2023-09-19T05:35:44;21.97;;;3.00;;
52586;SDS011;38480;52.724;6.436;2023-09-19T05:38:12;21.90;;;3.23;;
52586;SDS011;38480;52.724;6.436;2023-09-19T05:40:39;13.27;;;3.53;;
52586;SDS011;38480;52.724;6.436;2023-09-19T05:43:07;13.80;;;4.17;;
52586;SDS011;38480;52.724;6.436;2023-09-19T05:45:33;13.03;;;2.73;;
52586;SDS011;38480;52.724;6.436;2023-09-19T05:48:10;15.57;;;3.47;;
52586;SDS011;38480;52.724;6.436;2023-09-19T05:50:37;13.33;;;4.03;;
52586;SDS011;38480;52.724;6.436;2023-09-19T05:53:03;17.13;;;2.70;;
52586;SDS011;38480;52.724;6.436;2023-09-19T05:55:29;14.40;;;2.87;;
52586;SDS011;38480;52.724;6.436;2023-09-19T05:57:55;17.37;;;4.13;;
52586;SDS011;38480;52.724;6.436;2023-09-19T06:00:22;13.33;;;3.13;;
52586;SDS011;38480;52.724;6.436;2023-09-19T06:02:52;15.43;;;2.53;;
52586;SDS011;38480;52.724;6.436;2023-09-19T06:05:18;14.30;;;3.00;;
52586;SDS011;38480;52.724;6.436;2023-09-19T06:07:44;13.70;;;3.40;;
52586;SDS011;38480;52.724;6.436;2023-09-19T06:10:14;13.17;;;3.37;;
52586;SDS011;38480;52.724;6.436;2023-09-19T06:12:42;14.30;;;3.07;;
52586;SDS011;38480;52.724;6.436;2023-09-19T06:15:11;12.03;;;2.83;;
52586;SDS011;38480;52.724;6.436;2023-09-19T06:17:47;16.23;;;2.93;;
52586;SDS011;38480;52.724;6.436;2023-09-19T06:20:13;12.00;;;2.80;;
52586;SDS011;38480;52.724;6.436;2023-09-19T06:22:42;12.63;;;3.30;;
52586;SDS011;38480;52.724;6.436;2023-09-19T06:25:09;11.80;;;2.53;;
52586;SDS011;38480;52.724;6.436;2023-09-19T06:27:44;10.27;;;3.20;;
52586;SDS011;38480;52.724;6.436;2023-09-19T06:30:10;18.97;;;3.13;;
52586;SDS011;38480;52.724;6.436;2023-09-19T06:32:36;11.50;;;3.07;;
52586;SDS011;38480;52.724;6.436;2023-09-19T06:35:02;14.60;;;3.77;;
52586;SDS011;38480;52.724;6.436;2023-09-19T06:37:32;12.73;;;2.37;;
52586;SDS011;38480;52.724;6.436;2023-09-19T06:39:59;18.00;;;4.13;;
52586;SDS011;38480;52.724;6.436;2023-09-19T06:42:25;15.30;;;3.40;;
52586;SDS011;38480;52.724;6.436;2023-09-19T06:44:53;11.17;;;3.20;;
52586;SDS011;38480;52.724;6.436;2023-09-19T06:47:19;17.77;;;3.87;;
52586;SDS011;38480;52.724;6.436;2023-09-19T06:49:46;11.47;;;2.73;;
52586;SDS011;38480;52.724;6.436;2023-09-19T06:52:12;17.63;;;3.33;;
52586;SDS011;38480;52.724;6.436;2023-09-19T06:54:39;14.47;;;3.83;;
52586;SDS011;38480;52.724;6.436;2023-09-19T06:57:06;10.97;;;3.13;;
52586;SDS011;38480;52.724;6.436;2023-09-19T06:59:35;13.37;;;2.47;;
52586;SDS011;38480;52.724;6.436;2023-09-19T07:02:02;12.33;;;2.80;;
52586;SDS011;38480;52.724;6.436;2023-09-19T07:04:31;15.23;;;3.13;;
52586;SDS011;38480;52.724;6.436;2023-09-19T07:06:57;18.67;;;4.97;;
52586;SDS011;38480;52.724;6.436;2023-09-19T07:09:23;13.80;;;2.90;;
52586;SDS011;38480;52.724;6.436;2023-09-19T07:11:52;11.53;;;2.80;;
52586;SDS011;38480;52.724;6.436;2023-09-19T07:14:18;13.50;;;3.47;;
52586;SDS011;38480;52.724;6.436;2023-09-19T07:16:44;12.33;;;2.70;;
52586;SDS011;38480;52.724;6.436;2023-09-19T07:19:12;11.20;;;2.93;;
52586;SDS011;38480;52.724;6.436;2023-09-19T07:21:40;10.97;;;2.77;;
52586;SDS011;38480;52.724;6.436;2023-09-19T07:24:07;9.50;;;3.50;;
52586;SDS011;38480;52.724;6.436;2023-09-19T07:26:33;16.00;;;2.97;;
52586;SDS011;38480;52.724;6.436;2023-09-19T07:28:59;11.70;;;2.53;;
52586;SDS011;38480;52.724;6.436;2023-09-19T07:31:27;10.47;;;2.80;;
52586;SDS011;38480;52.724;6.436;2023-09-19T07:33:54;15.97;;;2.87;;
52586;SDS011;38480;52.724;6.436;2023-09-19T07:36:20;16.57;;;3.10;;
52586;SDS011;38480;52.724;6.436;2023-09-19T07:38:46;13.50;;;3.40;;
52586;SDS011;38480;52.724;6.436;2023-09-19T07:41:13;13.23;;;2.60;;
52586;SDS011;38480;52.724;6.436;2023-09-19T07:43:39;11.40;;;2.70;;
52586;SDS011;38480;52.724;6.436;2023-09-19T07:46:05;11.93;;;3.10;;
52586;SDS011;38480;52.724;6.436;2023-09-19T07:48:32;16.20;;;2.70;;
52586;SDS011;38480;52.724;6.436;2023-09-19T07:51:02;13.37;;;2.63;;
52586;SDS011;38480;52.724;6.436;2023-09-19T07:53:28;14.70;;;4.23;;
52586;SDS011;38480;52.724;6.436;2023-09-19T07:56:16;13.23;;;2.77;;
52586;SDS011;38480;52.724;6.436;2023-09-19T07:58:44;10.07;;;2.70;;
52586;SDS011;38480;52.724;6.436;2023-09-19T08:01:10;11.97;;;2.67;;
52586;SDS011;38480;52.724;6.436;2023-09-19T08:03:37;11.60;;;2.70;;
52586;SDS011;38480;52.724;6.436;2023-09-19T08:06:05;14.50;;;3.23;;
52586;SDS011;38480;52.724;6.436;2023-09-19T08:08:32;12.97;;;3.27;;
52586;SDS011;38480;52.724;6.436;2023-09-19T08:10:59;11.03;;;2.90;;
52586;SDS011;38480;52.724;6.436;2023-09-19T08:13:26;16.07;;;2.83;;
52586;SDS011;38480;52.724;6.436;2023-09-19T08:15:52;16.60;;;2.80;;
52586;SDS011;38480;52.724;6.436;2023-09-19T08:18:18;12.73;;;3.10;;
52586;SDS011;38480;52.724;6.436;2023-09-19T08:20:50;13.30;;;3.20;;
52586;SDS011;38480;52.724;6.436;2023-09-19T08:23:17;19.00;;;4.30;;
52586;SDS011;38480;52.724;6.436;2023-09-19T08:25:45;13.63;;;3.20;;
52586;SDS011;38480;52.724;6.436;2023-09-19T08:28:11;9.50;;;3.13;;
52586;SDS011;38480;52.724;6.436;2023-09-19T08:30:39;13.03;;;3.13;;
52586;SDS011;38480;52.724;6.436;2023-09-19T08:33:06;12.60;;;3.50;;
52586;SDS011;38480;52.724;6.436;2023-09-19T08:35:32;22.80;;;4.37;;
52586;SDS011;38480;52.724;6.436;2023-09-19T08:37:58;10.73;;;3.23;;
52586;SDS011;38480;52.724;6.436;2023-09-19T08:40:29;15.43;;;2.93;;
52586;SDS011;38480;52.724;6.436;2023-09-19T08:42:58;10.73;;;2.73;;
52586;SDS011;38480;52.724;6.436;2023-09-19T08:45:25;11.40;;;2.87;;
52586;SDS011;38480;52.724;6.436;2023-09-19T08:50:30;14.83;;;3.67;;
52586;SDS011;38480;52.724;6.436;2023-09-19T08:52:56;11.13;;;3.30;;
52586;SDS011;38480;52.724;6.436;2023-09-19T08:55:27;12.00;;;2.97;;
52586;SDS011;38480;52.724;6.436;2023-09-19T08:57:58;12.67;;;2.53;;
52586;SDS011;38480;52.724;6.436;2023-09-19T09:00:26;17.73;;;3.23;;
52586;SDS011;38480;52.724;6.436;2023-09-19T09:02:52;11.93;;;3.10;;
52586;SDS011;38480;52.724;6.436;2023-09-19T09:05:20;12.07;;;2.80;;
52586;SDS011;38480;52.724;6.436;2023-09-19T09:07:48;19.00;;;4.37;;
52586;SDS011;38480;52.724;6.436;2023-09-19T09:10:16;9.23;;;2.90;;
52586;SDS011;38480;52.724;6.436;2023-09-19T09:12:42;12.10;;;2.67;;
52586;SDS011;38480;52.724;6.436;2023-09-19T09:15:09;12.00;;;3.10;;
52586;SDS011;38480;52.724;6.436;2023-09-19T09:17:37;15.30;;;2.87;;
52586;SDS011;38480;52.724;6.436;2023-09-19T09:20:03;10.43;;;2.90;;
52586;SDS011;38480;52.724;6.436;2023-09-19T09:22:33;12.77;;;3.00;;
52586;SDS011;38480;52.724;6.436;2023-09-19T09:24:59;13.97;;;3.60;;
52586;SDS011;38480;52.724;6.436;2023-09-19T09:27:29;13.90;;;3.23;;
52586;SDS011;38480;52.724;6.436;2023-09-19T09:29:57;13.70;;;3.00;;
52586;SDS011;38480;52.724;6.436;2023-09-19T09:34:57;13.80;;;3.53;;
52586;SDS011;38480;52.724;6.436;2023-09-19T09:37:24;13.70;;;3.10;;
52586;SDS011;38480;52.724;6.436;2023-09-19T09:39:55;13.73;;;3.93;;
52586;SDS011;38480;52.724;6.436;2023-09-19T09:45:16;11.97;;;3.20;;
52586;SDS011;38480;52.724;6.436;2023-09-19T09:47:46;15.87;;;3.27;;
52586;SDS011;38480;52.724;6.436;2023-09-19T09:50:23;14.47;;;3.30;;
52586;SDS011;38480;52.724;6.436;2023-09-19T09:52:54;14.10;;;4.00;;
52586;SDS011;38480;52.724;6.436;2023-09-19T10:00:51;12.13;;;3.10;;
52586;SDS011;38480;52.724;6.436;2023-09-19T10:05:53;15.97;;;4.53;;
52586;SDS011;38480;52.724;6.436;2023-09-19T10:08:20;15.93;;;3.03;;
52586;SDS011;38480;52.724;6.436;2023-09-19T10:10:46;13.93;;;4.67;;
52586;SDS011;38480;52.724;6.436;2023-09-19T10:13:19;11.13;;;2.80;;
52586;SDS011;38480;52.724;6.436;2023-09-19T10:15:48;14.77;;;3.07;;
52586;SDS011;38480;52.724;6.436;2023-09-19T10:20:46;14.20;;;3.83;;
52586;SDS011;38480;52.724;6.436;2023-09-19T10:23:14;13.83;;;3.37;;
52586;SDS011;38480;52.724;6.436;2023-09-19T10:25:42;13.93;;;3.33;;
52586;SDS011;38480;52.724;6.436;2023-09-19T10:28:13;16.93;;;2.90;;
52586;SDS011;38480;52.724;6.436;2023-09-19T10:30:43;9.53;;;2.77;;
52586;SDS011;38480;52.724;6.436;2023-09-19T10:33:10;13.17;;;3.60;;
52586;SDS011;38480;52.724;6.436;2023-09-19T10:35:44;13.43;;;2.80;;
52586;SDS011;38480;52.724;6.436;2023-09-19T10:38:11;14.13;;;2.93;;
52586;SDS011;38480;52.724;6.436;2023-09-19T10:40:38;13.53;;;2.90;;
52586;SDS011;38480;52.724;6.436;2023-09-19T10:43:17;15.00;;;4.00;;
52586;SDS011;38480;52.724;6.436;2023-09-19T10:45:44;14.07;;;3.40;;
52586;SDS011;38480;52.724;6.436;2023-09-19T10:48:11;11.23;;;3.43;;
52586;SDS011;38480;52.724;6.436;2023-09-19T10:53:10;14.73;;;2.80;;
52586;SDS011;38480;52.724;6.436;2023-09-19T10:55:37;15.03;;;3.30;;
52586;SDS011;38480;52.724;6.436;2023-09-19T10:58:03;15.70;;;3.70;;
52586;SDS011;38480;52.724;6.436;2023-09-19T11:00:53;10.23;;;2.60;;
52586;SDS011;38480;52.724;6.436;2023-09-19T11:03:20;11.90;;;2.90;;
52586;SDS011;38480;52.724;6.436;2023-09-19T11:08:53;17.00;;;2.87;;
52586;SDS011;38480;52.724;6.436;2023-09-19T11:14:28;18.80;;;3.20;;
52586;SDS011;38480;52.724;6.436;2023-09-19T11:22:19;14.00;;;3.33;;
52586;SDS011;38480;52.724;6.436;2023-09-19T11:24:47;17.00;;;3.50;;
52586;SDS011;38480;52.724;6.436;2023-09-19T11:27:15;11.17;;;3.40;;
52586;SDS011;38480;52.724;6.436;2023-09-19T11:29:43;14.20;;;3.03;;
52586;SDS011;38480;52.724;6.436;2023-09-19T11:32:10;13.13;;;2.77;;
52586;SDS011;38480;52.724;6.436;2023-09-19T11:39:37;23.50;;;3.60;;
52586;SDS011;38480;52.724;6.436;2023-09-19T11:47:54;11.03;;;2.67;;
52586;SDS011;38480;52.724;6.436;2023-09-19T11:50:22;13.40;;;3.00;;
52586;SDS011;38480;52.724;6.436;2023-09-19T11:52:50;11.33;;;2.50;;
52586;SDS011;38480;52.724;6.436;2023-09-19T11:55:17;11.83;;;3.37;;
52586;SDS011;38480;52.724;6.436;2023-09-19T11:57:46;10.40;;;3.40;;
52586;SDS011;38480;52.724;6.436;2023-09-19T12:00:18;13.33;;;3.10;;
52586;SDS011;38480;52.724;6.436;2023-09-19T12:02:46;12.93;;;3.33;;
52586;SDS011;38480;52.724;6.436;2023-09-19T12:05:13;12.63;;;3.17;;
52586;SDS011;38480;52.724;6.436;2023-09-19T12:07:43;7.77;;;2.03;;
52586;SDS011;38480;52.724;6.436;2023-09-19T12:10:12;12.65;;;2.60;;
52586;SDS011;38480;52.724;6.436;2023-09-19T12:12:45;6.50;;;2.10;;
52586;SDS011;38480;52.724;6.436;2023-09-19T12:15:13;12.23;;;2.30;;
52586;SDS011;38480;52.724;6.436;2023-09-19T12:17:40;14.67;;;2.80;;
52586;SDS011;38480;52.724;6.436;2023-09-19T12:20:07;11.70;;;2.43;;
52586;SDS011;38480;52.724;6.436;2023-09-19T12:22:45;13.33;;;2.30;;
52586;SDS011;38480;52.724;6.436;2023-09-19T12:25:12;8.17;;;2.10;;
52586;SDS011;38480;52.724;6.436;2023-09-19T12:27:44;9.23;;;2.33;;
52586;SDS011;38480;52.724;6.436;2023-09-19T12:30:17;14.00;;;3.10;;
52586;SDS011;38480;52.724;6.436;2023-09-19T12:32:45;8.00;;;2.20;;
52586;SDS011;38480;52.724;6.436;2023-09-19T12:35:26;14.10;;;2.37;;
52586;SDS011;38480;52.724;6.436;2023-09-19T12:37:53;8.10;;;2.07;;
52586;SDS011;38480;52.724;6.436;2023-09-19T12:40:20;14.10;;;2.70;;
52586;SDS011;38480;52.724;6.436;2023-09-19T12:45:20;13.93;;;2.10;;
52586;SDS011;38480;52.724;6.436;2023-09-19T12:50:33;9.40;;;2.20;;
52586;SDS011;38480;52.724;6.436;2023-09-19T12:52:59;12.00;;;2.27;;
52586;SDS011;38480;52.724;6.436;2023-09-19T12:55:26;12.00;;;2.10;;
52586;SDS011;38480;52.724;6.436;2023-09-19T12:58:08;9.90;;;2.10;;
52586;SDS011;38480;52.724;6.436;2023-09-19T13:00:36;16.77;;;2.22;;
52586;SDS011;38480;52.724;6.436;2023-09-19T13:03:16;9.07;;;1.93;;
52586;SDS011;38480;52.724;6.436;2023-09-19T13:05:50;6.77;;;1.80;;
52586;SDS011;38480;52.724;6.436;2023-09-19T13:08:19;14.33;;;2.27;;
52586;SDS011;38480;52.724;6.436;2023-09-19T13:11:02;9.53;;;2.10;;
52586;SDS011;38480;52.724;6.436;2023-09-19T13:13:28;10.77;;;2.13;;
52586;SDS011;38480;52.724;6.436;2023-09-19T13:15:54;8.03;;;2.07;;
52586;SDS011;38480;52.724;6.436;2023-09-19T13:18:22;10.20;;;2.13;;
52586;SDS011;38480;52.724;6.436;2023-09-19T13:21:06;9.73;;;2.00;;
52586;SDS011;38480;52.724;6.436;2023-09-19T13:23:37;5.17;;;1.70;;
52586;SDS011;38480;52.724;6.436;2023-09-19T13:26:04;9.70;;;2.27;;
52586;SDS011;38480;52.724;6.436;2023-09-19T13:28:31;9.77;;;2.03;;
52586;SDS011;38480;52.724;6.436;2023-09-19T13:30:57;8.43;;;1.83;;
52586;SDS011;38480;52.724;6.436;2023-09-19T13:33:23;8.23;;;2.07;;
52586;SDS011;38480;52.724;6.436;2023-09-19T13:35:49;8.47;;;1.73;;
52586;SDS011;38480;52.724;6.436;2023-09-19T13:38:16;8.77;;;2.27;;
52586;SDS011;38480;52.724;6.436;2023-09-19T13:40:43;5.63;;;1.50;;
52586;SDS011;38480;52.724;6.436;2023-09-19T13:43:09;9.30;;;1.77;;
52586;SDS011;38480;52.724;6.436;2023-09-19T13:45:38;9.23;;;1.83;;
52586;SDS011;38480;52.724;6.436;2023-09-19T13:48:07;11.03;;;1.80;;
52586;SDS011;38480;52.724;6.436;2023-09-19T13:50:36;10.73;;;2.40;;
52586;SDS011;38480;52.724;6.436;2023-09-19T13:53:07;12.50;;;2.43;;
52586;SDS011;38480;52.724;6.436;2023-09-19T13:55:33;8.43;;;2.33;;
52586;SDS011;38480;52.724;6.436;2023-09-19T13:57:59;7.70;;;1.90;;
52586;SDS011;38480;52.724;6.436;2023-09-19T14:00:25;8.17;;;2.10;;
52586;SDS011;38480;52.724;6.436;2023-09-19T14:02:52;7.03;;;1.50;;
52586;SDS011;38480;52.724;6.436;2023-09-19T14:05:18;10.40;;;1.90;;
52586;SDS011;38480;52.724;6.436;2023-09-19T14:07:45;6.70;;;1.87;;
52586;SDS011;38480;52.724;6.436;2023-09-19T14:10:11;4.67;;;1.87;;
52586;SDS011;38480;52.724;6.436;2023-09-19T14:12:37;10.20;;;2.17;;
52586;SDS011;38480;52.724;6.436;2023-09-19T14:15:05;4.10;;;1.07;;
52586;SDS011;38480;52.724;6.436;2023-09-19T14:17:32;10.40;;;1.80;;
52586;SDS011;38480;52.724;6.436;2023-09-19T14:19:58;5.53;;;1.40;;
52586;SDS011;38480;52.724;6.436;2023-09-19T14:22:24;12.03;;;1.50;;
52586;SDS011;38480;52.724;6.436;2023-09-19T14:24:50;4.67;;;1.20;;
52586;SDS011;38480;52.724;6.436;2023-09-19T14:27:17;6.33;;;1.20;;
52586;SDS011;38480;52.724;6.436;2023-09-19T14:29:43;8.33;;;1.33;;
52586;SDS011;38480;52.724;6.436;2023-09-19T14:32:09;8.57;;;1.50;;
52586;SDS011;38480;52.724;6.436;2023-09-19T14:34:35;8.17;;;1.80;;
52586;SDS011;38480;52.724;6.436;2023-09-19T14:37:06;6.50;;;1.70;;
52586;SDS011;38480;52.724;6.436;2023-09-19T14:39:33;8.13;;;1.77;;
52586;SDS011;38480;52.724;6.436;2023-09-19T14:41:59;7.47;;;1.33;;
52586;SDS011;38480;52.724;6.436;2023-09-19T14:44:25;4.60;;;1.40;;
52586;SDS011;38480;52.724;6.436;2023-09-19T14:46:51;7.47;;;1.40;;
52586;SDS011;38480;52.724;6.436;2023-09-19T14:49:17;5.07;;;1.30;;
52586;SDS011;38480;52.724;6.436;2023-09-19T14:51:42;4.77;;;1.37;;
52586;SDS011;38480;52.724;6.436;2023-09-19T14:54:14;4.63;;;1.10;;
52586;SDS011;38480;52.724;6.436;2023-09-19T14:56:44;5.10;;;1.50;;
52586;SDS011;38480;52.724;6.436;2023-09-19T14:59:10;5.90;;;1.37;;
52586;SDS011;38480;52.724;6.436;2023-09-19T15:01:36;5.20;;;1.20;;
52586;SDS011;38480;52.724;6.436;2023-09-19T15:04:03;7.83;;;1.50;;
52586;SDS011;38480;52.724;6.436;2023-09-19T15:06:29;6.20;;;1.70;;
52586;SDS011;38480;52.724;6.436;2023-09-19T15:08:55;5.87;;;1.30;;
52586;SDS011;38480;52.724;6.436;2023-09-19T15:11:22;5.60;;;1.23;;
52586;SDS011;38480;52.724;6.436;2023-09-19T15:13:50;7.33;;;2.23;;
52586;SDS011;38480;52.724;6.436;2023-09-19T15:16:17;8.00;;;1.30;;
52586;SDS011;38480;52.724;6.436;2023-09-19T15:18:44;10.00;;;1.57;;
52586;SDS011;38480;52.724;6.436;2023-09-19T15:21:12;7.23;;;1.63;;
52586;SDS011;38480;52.724;6.436;2023-09-19T15:23:39;6.67;;;1.20;;
52586;SDS011;38480;52.724;6.436;2023-09-19T15:26:06;5.30;;;1.87;;
52586;SDS011;38480;52.724;6.436;2023-09-19T15:28:39;7.20;;;1.70;;
52586;SDS011;38480;52.724;6.436;2023-09-19T15:31:09;6.40;;;1.57;;
52586;SDS011;38480;52.724;6.436;2023-09-19T15:33:35;4.50;;;1.20;;
52586;SDS011;38480;52.724;6.436;2023-09-19T15:36:05;6.47;;;1.53;;
52586;SDS011;38480;52.724;6.436;2023-09-19T15:38:32;4.00;;;1.43;;
52586;SDS011;38480;52.724;6.436;2023-09-19T15:41:18;6.27;;;1.60;;